sensor_id;sensor_type;location;lat;lon;timestamp;P1;durP1;ratioP1;P2;durP2;ratioP2
47309;SDS011;33046;52.270;6.832;2023-05-15T00:01:12;24.70;;;22.17;;
47309;SDS011;33046;52.270;6.832;2023-05-15T00:03:20;22.23;;;20.13;;
47309;SDS011;33046;52.270;6.832;2023-05-15T00:05:27;23.73;;;21.45;;
47309;SDS011;33046;52.270;6.832;2023-05-15T00:07:34;23.55;;;21.17;;
47309;SDS011;33046;52.270;6.832;2023-05-15T00:09:43;24.77;;;22.30;;
47309;SDS011;33046;52.270;6.832;2023-05-15T00:11:49;24.05;;;21.65;;
47309;SDS011;33046;52.270;6.832;2023-05-15T00:13:56;23.83;;;21.52;;
47309;SDS011;33046;52.270;6.832;2023-05-15T00:16:03;25.13;;;22.63;;
47309;SDS011;33046;52.270;6.832;2023-05-15T00:18:11;24.02;;;20.63;;
47309;SDS011;33046;52.270;6.832;2023-05-15T00:20:19;24.98;;;22.67;;
47309;SDS011;33046;52.270;6.832;2023-05-15T00:22:26;23.60;;;21.35;;
47309;SDS011;33046;52.270;6.832;2023-05-15T00:24:33;25.23;;;22.67;;
47309;SDS011;33046;52.270;6.832;2023-05-15T00:26:40;23.83;;;21.63;;
47309;SDS011;33046;52.270;6.832;2023-05-15T00:28:48;24.42;;;22.02;;
47309;SDS011;33046;52.270;6.832;2023-05-15T00:30:55;25.38;;;22.88;;
47309;SDS011;33046;52.270;6.832;2023-05-15T00:33:02;26.10;;;23.70;;
47309;SDS011;33046;52.270;6.832;2023-05-15T00:35:09;25.15;;;22.77;;
47309;SDS011;33046;52.270;6.832;2023-05-15T00:37:17;25.23;;;22.58;;
47309;SDS011;33046;52.270;6.832;2023-05-15T00:39:24;25.42;;;22.92;;
47309;SDS011;33046;52.270;6.832;2023-05-15T00:41:30;27.42;;;24.70;;
47309;SDS011;33046;52.270;6.832;2023-05-15T00:43:40;24.58;;;22.30;;
47309;SDS011;33046;52.270;6.832;2023-05-15T00:45:48;26.65;;;23.85;;
47309;SDS011;33046;52.270;6.832;2023-05-15T00:47:56;25.98;;;23.40;;
47309;SDS011;33046;52.270;6.832;2023-05-15T00:50:04;27.20;;;24.42;;
47309;SDS011;33046;52.270;6.832;2023-05-15T00:52:11;26.60;;;24.00;;
47309;SDS011;33046;52.270;6.832;2023-05-15T00:54:20;26.70;;;24.13;;
47309;SDS011;33046;52.270;6.832;2023-05-15T00:56:27;26.60;;;23.83;;
47309;SDS011;33046;52.270;6.832;2023-05-15T00:58:37;26.90;;;24.17;;
47309;SDS011;33046;52.270;6.832;2023-05-15T01:00:44;26.48;;;23.77;;
47309;SDS011;33046;52.270;6.832;2023-05-15T01:02:55;27.25;;;24.48;;
47309;SDS011;33046;52.270;6.832;2023-05-15T01:05:02;25.38;;;23.00;;
47309;SDS011;33046;52.270;6.832;2023-05-15T01:07:09;26.85;;;24.20;;
47309;SDS011;33046;52.270;6.832;2023-05-15T01:09:16;25.50;;;23.02;;
47309;SDS011;33046;52.270;6.832;2023-05-15T01:11:26;27.50;;;24.80;;
47309;SDS011;33046;52.270;6.832;2023-05-15T01:13:33;26.67;;;23.98;;
47309;SDS011;33046;52.270;6.832;2023-05-15T01:15:40;26.42;;;23.83;;
47309;SDS011;33046;52.270;6.832;2023-05-15T01:17:49;27.52;;;24.67;;
47309;SDS011;33046;52.270;6.832;2023-05-15T01:19:56;25.48;;;22.95;;
47309;SDS011;33046;52.270;6.832;2023-05-15T01:24:47;25.85;;;23.20;;
47309;SDS011;33046;52.270;6.832;2023-05-15T01:27:15;26.75;;;24.15;;
47309;SDS011;33046;52.270;6.832;2023-05-15T01:29:26;26.58;;;23.95;;
47309;SDS011;33046;52.270;6.832;2023-05-15T01:31:35;25.85;;;23.10;;
47309;SDS011;33046;52.270;6.832;2023-05-15T01:33:48;26.23;;;23.52;;
47309;SDS011;33046;52.270;6.832;2023-05-15T01:36:11;27.48;;;24.73;;
47309;SDS011;33046;52.270;6.832;2023-05-15T01:38:26;27.80;;;24.60;;
47309;SDS011;33046;52.270;6.832;2023-05-15T01:40:38;28.30;;;25.40;;
47309;SDS011;33046;52.270;6.832;2023-05-15T01:42:50;27.00;;;24.15;;
47309;SDS011;33046;52.270;6.832;2023-05-15T01:45:00;27.33;;;24.73;;
47309;SDS011;33046;52.270;6.832;2023-05-15T01:47:11;28.58;;;25.70;;
47309;SDS011;33046;52.270;6.832;2023-05-15T01:49:21;27.00;;;24.30;;
47309;SDS011;33046;52.270;6.832;2023-05-15T01:51:31;27.13;;;23.55;;
47309;SDS011;33046;52.270;6.832;2023-05-15T01:53:39;28.17;;;24.98;;
47309;SDS011;33046;52.270;6.832;2023-05-15T01:55:47;26.02;;;23.35;;
47309;SDS011;33046;52.270;6.832;2023-05-15T01:57:57;28.05;;;25.10;;
47309;SDS011;33046;52.270;6.832;2023-05-15T02:00:09;27.10;;;24.35;;
47309;SDS011;33046;52.270;6.832;2023-05-15T02:02:20;27.92;;;24.92;;
47309;SDS011;33046;52.270;6.832;2023-05-15T02:04:28;27.27;;;24.58;;
47309;SDS011;33046;52.270;6.832;2023-05-15T02:06:36;28.02;;;25.10;;
47309;SDS011;33046;52.270;6.832;2023-05-15T02:08:44;26.90;;;24.10;;
47309;SDS011;33046;52.270;6.832;2023-05-15T02:10:53;26.90;;;24.15;;
47309;SDS011;33046;52.270;6.832;2023-05-15T02:13:02;27.40;;;24.65;;
47309;SDS011;33046;52.270;6.832;2023-05-15T02:15:10;26.60;;;23.83;;
47309;SDS011;33046;52.270;6.832;2023-05-15T02:17:19;28.90;;;25.80;;
47309;SDS011;33046;52.270;6.832;2023-05-15T02:19:27;28.42;;;25.67;;
47309;SDS011;33046;52.270;6.832;2023-05-15T02:21:34;31.05;;;25.70;;
47309;SDS011;33046;52.270;6.832;2023-05-15T02:23:41;29.80;;;26.15;;
47309;SDS011;33046;52.270;6.832;2023-05-15T02:25:49;28.45;;;25.58;;
47309;SDS011;33046;52.270;6.832;2023-05-15T02:28:12;26.63;;;23.73;;
47309;SDS011;33046;52.270;6.832;2023-05-15T02:30:30;28.27;;;25.30;;
47309;SDS011;33046;52.270;6.832;2023-05-15T02:32:46;29.48;;;26.48;;
47309;SDS011;33046;52.270;6.832;2023-05-15T02:35:01;29.33;;;26.08;;
47309;SDS011;33046;52.270;6.832;2023-05-15T02:37:16;28.95;;;24.85;;
47309;SDS011;33046;52.270;6.832;2023-05-15T02:39:29;26.13;;;23.42;;
47309;SDS011;33046;52.270;6.832;2023-05-15T02:41:37;27.77;;;24.98;;
47309;SDS011;33046;52.270;6.832;2023-05-15T02:43:46;27.13;;;24.52;;
47309;SDS011;33046;52.270;6.832;2023-05-15T02:45:56;26.52;;;23.83;;
47309;SDS011;33046;52.270;6.832;2023-05-15T02:48:04;28.13;;;25.15;;
47309;SDS011;33046;52.270;6.832;2023-05-15T02:50:12;27.63;;;24.75;;
47309;SDS011;33046;52.270;6.832;2023-05-15T02:52:21;28.98;;;25.85;;
47309;SDS011;33046;52.270;6.832;2023-05-15T02:54:28;27.70;;;24.95;;
47309;SDS011;33046;52.270;6.832;2023-05-15T02:56:35;29.60;;;26.60;;
47309;SDS011;33046;52.270;6.832;2023-05-15T02:58:42;27.63;;;24.88;;
47309;SDS011;33046;52.270;6.832;2023-05-15T03:00:50;32.42;;;26.67;;
47309;SDS011;33046;52.270;6.832;2023-05-15T03:02:57;29.33;;;26.20;;
47309;SDS011;33046;52.270;6.832;2023-05-15T03:05:04;29.67;;;26.60;;
47309;SDS011;33046;52.270;6.832;2023-05-15T03:07:11;30.35;;;27.05;;
47309;SDS011;33046;52.270;6.832;2023-05-15T03:09:18;28.50;;;25.50;;
47309;SDS011;33046;52.270;6.832;2023-05-15T03:11:25;29.30;;;26.05;;
47309;SDS011;33046;52.270;6.832;2023-05-15T03:13:32;29.77;;;25.90;;
47309;SDS011;33046;52.270;6.832;2023-05-15T03:15:39;31.45;;;28.27;;
47309;SDS011;33046;52.270;6.832;2023-05-15T03:17:49;29.35;;;26.30;;
47309;SDS011;33046;52.270;6.832;2023-05-15T03:19:56;27.80;;;24.92;;
47309;SDS011;33046;52.270;6.832;2023-05-15T03:22:03;31.60;;;28.33;;
47309;SDS011;33046;52.270;6.832;2023-05-15T03:24:10;31.70;;;28.27;;
47309;SDS011;33046;52.270;6.832;2023-05-15T03:26:17;31.05;;;27.95;;
47309;SDS011;33046;52.270;6.832;2023-05-15T03:28:23;28.42;;;25.50;;
47309;SDS011;33046;52.270;6.832;2023-05-15T03:30:30;28.77;;;25.73;;
47309;SDS011;33046;52.270;6.832;2023-05-15T03:32:37;29.80;;;26.85;;
47309;SDS011;33046;52.270;6.832;2023-05-15T03:34:45;28.70;;;25.90;;
47309;SDS011;33046;52.270;6.832;2023-05-15T03:36:52;29.33;;;26.48;;
47309;SDS011;33046;52.270;6.832;2023-05-15T03:38:59;28.73;;;25.98;;
47309;SDS011;33046;52.270;6.832;2023-05-15T03:41:05;29.27;;;26.27;;
47309;SDS011;33046;52.270;6.832;2023-05-15T03:43:12;28.30;;;25.50;;
47309;SDS011;33046;52.270;6.832;2023-05-15T03:45:19;31.73;;;28.38;;
47309;SDS011;33046;52.270;6.832;2023-05-15T03:47:27;28.90;;;25.80;;
47309;SDS011;33046;52.270;6.832;2023-05-15T03:49:33;29.27;;;26.20;;
47309;SDS011;33046;52.270;6.832;2023-05-15T03:51:45;27.73;;;24.83;;
47309;SDS011;33046;52.270;6.832;2023-05-15T03:53:52;26.10;;;23.35;;
47309;SDS011;33046;52.270;6.832;2023-05-15T03:56:01;27.85;;;23.77;;
47309;SDS011;33046;52.270;6.832;2023-05-15T03:58:08;39.70;;;25.17;;
47309;SDS011;33046;52.270;6.832;2023-05-15T04:00:15;25.60;;;23.00;;
47309;SDS011;33046;52.270;6.832;2023-05-15T04:02:22;23.63;;;21.27;;
47309;SDS011;33046;52.270;6.832;2023-05-15T04:04:29;28.25;;;25.35;;
47309;SDS011;33046;52.270;6.832;2023-05-15T04:06:35;24.63;;;22.15;;
47309;SDS011;33046;52.270;6.832;2023-05-15T04:08:43;26.48;;;22.20;;
47309;SDS011;33046;52.270;6.832;2023-05-15T04:10:50;24.50;;;22.00;;
47309;SDS011;33046;52.270;6.832;2023-05-15T04:12:57;25.33;;;22.73;;
47309;SDS011;33046;52.270;6.832;2023-05-15T04:15:14;27.17;;;23.85;;
47309;SDS011;33046;52.270;6.832;2023-05-15T04:17:21;26.77;;;23.95;;
47309;SDS011;33046;52.270;6.832;2023-05-15T04:19:28;26.60;;;23.55;;
47309;SDS011;33046;52.270;6.832;2023-05-15T04:21:35;25.65;;;23.05;;
47309;SDS011;33046;52.270;6.832;2023-05-15T04:23:43;26.10;;;23.52;;
47309;SDS011;33046;52.270;6.832;2023-05-15T04:25:50;23.45;;;21.13;;
47309;SDS011;33046;52.270;6.832;2023-05-15T04:27:57;24.95;;;22.52;;
47309;SDS011;33046;52.270;6.832;2023-05-15T04:30:04;21.95;;;19.85;;
47309;SDS011;33046;52.270;6.832;2023-05-15T04:32:12;23.77;;;21.50;;
47309;SDS011;33046;52.270;6.832;2023-05-15T04:34:19;22.88;;;20.65;;
47309;SDS011;33046;52.270;6.832;2023-05-15T04:36:25;21.73;;;19.38;;
47309;SDS011;33046;52.270;6.832;2023-05-15T04:38:32;22.45;;;20.25;;
47309;SDS011;33046;52.270;6.832;2023-05-15T04:40:40;22.92;;;20.83;;
47309;SDS011;33046;52.270;6.832;2023-05-15T04:42:47;23.25;;;20.02;;
47309;SDS011;33046;52.270;6.832;2023-05-15T04:44:54;21.42;;;19.42;;
47309;SDS011;33046;52.270;6.832;2023-05-15T04:47:01;25.58;;;22.83;;
47309;SDS011;33046;52.270;6.832;2023-05-15T04:49:07;22.25;;;20.17;;
47309;SDS011;33046;52.270;6.832;2023-05-15T04:51:14;24.30;;;22.02;;
47309;SDS011;33046;52.270;6.832;2023-05-15T04:53:21;21.33;;;19.33;;
47309;SDS011;33046;52.270;6.832;2023-05-15T04:55:28;22.40;;;20.40;;
47309;SDS011;33046;52.270;6.832;2023-05-15T04:57:36;22.15;;;20.02;;
47309;SDS011;33046;52.270;6.832;2023-05-15T04:59:43;22.80;;;20.63;;
47309;SDS011;33046;52.270;6.832;2023-05-15T05:01:50;22.52;;;20.48;;
47309;SDS011;33046;52.270;6.832;2023-05-15T05:03:57;23.80;;;21.33;;
47309;SDS011;33046;52.270;6.832;2023-05-15T05:06:03;23.95;;;21.65;;
47309;SDS011;33046;52.270;6.832;2023-05-15T05:08:10;22.83;;;20.63;;
47309;SDS011;33046;52.270;6.832;2023-05-15T05:10:17;21.17;;;19.27;;
47309;SDS011;33046;52.270;6.832;2023-05-15T05:12:24;20.90;;;18.95;;
47309;SDS011;33046;52.270;6.832;2023-05-15T05:14:33;21.02;;;18.90;;
47309;SDS011;33046;52.270;6.832;2023-05-15T05:16:40;22.20;;;20.17;;
47309;SDS011;33046;52.270;6.832;2023-05-15T05:18:49;22.30;;;20.00;;
47309;SDS011;33046;52.270;6.832;2023-05-15T05:20:59;21.25;;;19.15;;
47309;SDS011;33046;52.270;6.832;2023-05-15T05:23:06;22.58;;;20.38;;
47309;SDS011;33046;52.270;6.832;2023-05-15T05:25:13;22.73;;;20.42;;
47309;SDS011;33046;52.270;6.832;2023-05-15T05:27:19;22.52;;;20.52;;
47309;SDS011;33046;52.270;6.832;2023-05-15T05:29:26;21.23;;;19.20;;
47309;SDS011;33046;52.270;6.832;2023-05-15T05:31:35;23.30;;;20.95;;
47309;SDS011;33046;52.270;6.832;2023-05-15T05:33:42;24.95;;;22.45;;
47309;SDS011;33046;52.270;6.832;2023-05-15T05:35:49;23.23;;;20.90;;
47309;SDS011;33046;52.270;6.832;2023-05-15T05:37:56;23.67;;;21.38;;
47309;SDS011;33046;52.270;6.832;2023-05-15T05:40:03;23.58;;;21.38;;
47309;SDS011;33046;52.270;6.832;2023-05-15T05:42:10;21.77;;;19.58;;
47309;SDS011;33046;52.270;6.832;2023-05-15T05:44:17;22.35;;;20.25;;
47309;SDS011;33046;52.270;6.832;2023-05-15T05:46:24;23.48;;;21.27;;
47309;SDS011;33046;52.270;6.832;2023-05-15T05:48:32;23.08;;;20.95;;
47309;SDS011;33046;52.270;6.832;2023-05-15T05:50:38;20.88;;;18.90;;
47309;SDS011;33046;52.270;6.832;2023-05-15T05:52:45;19.35;;;17.55;;
47309;SDS011;33046;52.270;6.832;2023-05-15T05:54:52;20.40;;;18.50;;
47309;SDS011;33046;52.270;6.832;2023-05-15T05:56:59;20.85;;;18.95;;
47309;SDS011;33046;52.270;6.832;2023-05-15T05:59:06;22.00;;;19.83;;
47309;SDS011;33046;52.270;6.832;2023-05-15T06:01:13;21.48;;;19.48;;
47309;SDS011;33046;52.270;6.832;2023-05-15T06:03:20;21.75;;;19.65;;
47309;SDS011;33046;52.270;6.832;2023-05-15T06:05:28;24.00;;;21.65;;
47309;SDS011;33046;52.270;6.832;2023-05-15T06:07:35;23.90;;;21.45;;
47309;SDS011;33046;52.270;6.832;2023-05-15T06:09:42;23.00;;;20.70;;
47309;SDS011;33046;52.270;6.832;2023-05-15T06:11:49;22.52;;;20.33;;
47309;SDS011;33046;52.270;6.832;2023-05-15T06:13:55;23.67;;;21.38;;
47309;SDS011;33046;52.270;6.832;2023-05-15T06:16:02;25.05;;;22.63;;
47309;SDS011;33046;52.270;6.832;2023-05-15T06:18:10;24.80;;;22.20;;
47309;SDS011;33046;52.270;6.832;2023-05-15T06:20:16;23.63;;;21.30;;
47309;SDS011;33046;52.270;6.832;2023-05-15T06:22:25;25.92;;;23.20;;
47309;SDS011;33046;52.270;6.832;2023-05-15T06:24:32;24.42;;;21.92;;
47309;SDS011;33046;52.270;6.832;2023-05-15T06:26:39;24.83;;;22.42;;
47309;SDS011;33046;52.270;6.832;2023-05-15T06:28:46;24.23;;;21.63;;
47309;SDS011;33046;52.270;6.832;2023-05-15T06:30:53;21.27;;;19.20;;
47309;SDS011;33046;52.270;6.832;2023-05-15T06:32:59;22.38;;;20.25;;
47309;SDS011;33046;52.270;6.832;2023-05-15T06:35:07;22.20;;;20.05;;
47309;SDS011;33046;52.270;6.832;2023-05-15T06:37:14;21.35;;;19.25;;
47309;SDS011;33046;52.270;6.832;2023-05-15T06:39:22;22.60;;;20.33;;
47309;SDS011;33046;52.270;6.832;2023-05-15T06:41:29;22.08;;;19.88;;
47309;SDS011;33046;52.270;6.832;2023-05-15T06:43:36;29.58;;;23.83;;
47309;SDS011;33046;52.270;6.832;2023-05-15T06:45:43;33.53;;;25.00;;
47309;SDS011;33046;52.270;6.832;2023-05-15T06:47:50;30.90;;;25.08;;
47309;SDS011;33046;52.270;6.832;2023-05-15T06:49:57;24.00;;;21.58;;
47309;SDS011;33046;52.270;6.832;2023-05-15T06:52:04;25.30;;;22.80;;
47309;SDS011;33046;52.270;6.832;2023-05-15T06:54:11;25.52;;;22.77;;
47309;SDS011;33046;52.270;6.832;2023-05-15T06:56:19;24.80;;;22.17;;
47309;SDS011;33046;52.270;6.832;2023-05-15T06:58:26;24.80;;;22.30;;
47309;SDS011;33046;52.270;6.832;2023-05-15T07:00:33;23.30;;;20.98;;
47309;SDS011;33046;52.270;6.832;2023-05-15T07:02:39;23.23;;;20.92;;
47309;SDS011;33046;52.270;6.832;2023-05-15T07:04:46;24.25;;;21.70;;
47309;SDS011;33046;52.270;6.832;2023-05-15T07:06:53;24.65;;;22.15;;
47309;SDS011;33046;52.270;6.832;2023-05-15T07:09:00;23.70;;;21.33;;
47309;SDS011;33046;52.270;6.832;2023-05-15T07:11:06;24.80;;;22.13;;
47309;SDS011;33046;52.270;6.832;2023-05-15T07:13:16;25.35;;;22.73;;
47309;SDS011;33046;52.270;6.832;2023-05-15T07:15:23;25.58;;;22.98;;
47309;SDS011;33046;52.270;6.832;2023-05-15T07:17:30;28.15;;;24.25;;
47309;SDS011;33046;52.270;6.832;2023-05-15T07:19:38;25.85;;;23.10;;
47309;SDS011;33046;52.270;6.832;2023-05-15T07:21:45;27.10;;;23.80;;
47309;SDS011;33046;52.270;6.832;2023-05-15T07:23:52;25.48;;;22.83;;
47309;SDS011;33046;52.270;6.832;2023-05-15T07:25:59;24.88;;;22.33;;
47309;SDS011;33046;52.270;6.832;2023-05-15T07:28:05;26.13;;;23.42;;
47309;SDS011;33046;52.270;6.832;2023-05-15T07:30:14;26.33;;;23.25;;
47309;SDS011;33046;52.270;6.832;2023-05-15T07:32:20;24.10;;;21.65;;
47309;SDS011;33046;52.270;6.832;2023-05-15T07:34:27;24.48;;;20.92;;
47309;SDS011;33046;52.270;6.832;2023-05-15T07:36:34;25.77;;;23.17;;
47309;SDS011;33046;52.270;6.832;2023-05-15T07:38:41;24.58;;;22.05;;
47309;SDS011;33046;52.270;6.832;2023-05-15T07:40:48;23.70;;;21.35;;
47309;SDS011;33046;52.270;6.832;2023-05-15T07:42:54;25.27;;;22.73;;
47309;SDS011;33046;52.270;6.832;2023-05-15T07:45:01;23.80;;;21.50;;
47309;SDS011;33046;52.270;6.832;2023-05-15T07:47:09;21.95;;;19.80;;
47309;SDS011;33046;52.270;6.832;2023-05-15T07:49:16;22.02;;;19.85;;
47309;SDS011;33046;52.270;6.832;2023-05-15T07:51:23;21.77;;;19.58;;
47309;SDS011;33046;52.270;6.832;2023-05-15T07:53:30;20.00;;;18.10;;
47309;SDS011;33046;52.270;6.832;2023-05-15T07:55:37;20.73;;;18.63;;
47309;SDS011;33046;52.270;6.832;2023-05-15T07:57:43;18.30;;;16.60;;
47309;SDS011;33046;52.270;6.832;2023-05-15T07:59:50;22.27;;;17.10;;
47309;SDS011;33046;52.270;6.832;2023-05-15T08:01:57;17.50;;;15.80;;
47309;SDS011;33046;52.270;6.832;2023-05-15T08:04:06;18.20;;;16.40;;
47309;SDS011;33046;52.270;6.832;2023-05-15T08:06:13;17.02;;;15.32;;
47309;SDS011;33046;52.270;6.832;2023-05-15T08:08:20;16.35;;;14.70;;
47309;SDS011;33046;52.270;6.832;2023-05-15T08:10:27;16.50;;;14.90;;
47309;SDS011;33046;52.270;6.832;2023-05-15T08:12:34;16.38;;;14.77;;
47309;SDS011;33046;52.270;6.832;2023-05-15T08:14:40;14.95;;;13.52;;
47309;SDS011;33046;52.270;6.832;2023-05-15T08:16:48;23.90;;;15.68;;
47309;SDS011;33046;52.270;6.832;2023-05-15T08:18:55;14.75;;;13.30;;
47309;SDS011;33046;52.270;6.832;2023-05-15T08:21:03;14.85;;;13.07;;
47309;SDS011;33046;52.270;6.832;2023-05-15T08:23:10;14.50;;;12.90;;
47309;SDS011;33046;52.270;6.832;2023-05-15T08:25:18;12.13;;;11.02;;
47309;SDS011;33046;52.270;6.832;2023-05-15T08:27:25;13.55;;;12.15;;
47309;SDS011;33046;52.270;6.832;2023-05-15T08:29:32;13.57;;;12.27;;
47309;SDS011;33046;52.270;6.832;2023-05-15T08:31:40;14.00;;;12.73;;
47309;SDS011;33046;52.270;6.832;2023-05-15T08:33:46;13.20;;;12.02;;
47309;SDS011;33046;52.270;6.832;2023-05-15T08:35:53;13.25;;;12.05;;
47309;SDS011;33046;52.270;6.832;2023-05-15T08:38:01;15.90;;;12.23;;
47309;SDS011;33046;52.270;6.832;2023-05-15T08:40:08;13.43;;;12.07;;
47309;SDS011;33046;52.270;6.832;2023-05-15T08:42:18;12.05;;;11.00;;
47309;SDS011;33046;52.270;6.832;2023-05-15T08:46:35;11.75;;;10.55;;
47309;SDS011;33046;52.270;6.832;2023-05-15T08:48:43;11.43;;;10.18;;
47309;SDS011;33046;52.270;6.832;2023-05-15T08:50:50;10.73;;;9.77;;
47309;SDS011;33046;52.270;6.832;2023-05-15T08:52:57;12.30;;;11.07;;
47309;SDS011;33046;52.270;6.832;2023-05-15T08:55:06;15.05;;;11.20;;
47309;SDS011;33046;52.270;6.832;2023-05-15T08:57:13;11.38;;;10.27;;
47309;SDS011;33046;52.270;6.832;2023-05-15T08:59:21;10.75;;;9.65;;
47309;SDS011;33046;52.270;6.832;2023-05-15T09:01:28;11.88;;;10.77;;
47309;SDS011;33046;52.270;6.832;2023-05-15T09:03:35;12.50;;;11.30;;
47309;SDS011;33046;52.270;6.832;2023-05-15T09:05:42;12.07;;;10.98;;
47309;SDS011;33046;52.270;6.832;2023-05-15T09:07:50;12.32;;;11.13;;
47309;SDS011;33046;52.270;6.832;2023-05-15T09:10:00;12.75;;;10.77;;
47309;SDS011;33046;52.270;6.832;2023-05-15T09:12:10;10.95;;;9.88;;
47309;SDS011;33046;52.270;6.832;2023-05-15T09:14:19;11.85;;;10.82;;
47309;SDS011;33046;52.270;6.832;2023-05-15T09:16:26;12.05;;;10.85;;
47309;SDS011;33046;52.270;6.832;2023-05-15T09:18:33;10.50;;;9.52;;
47309;SDS011;33046;52.270;6.832;2023-05-15T09:20:40;10.55;;;9.45;;
47309;SDS011;33046;52.270;6.832;2023-05-15T09:22:47;11.70;;;10.25;;
47309;SDS011;33046;52.270;6.832;2023-05-15T09:24:53;12.45;;;11.20;;
47309;SDS011;33046;52.270;6.832;2023-05-15T09:27:01;10.23;;;9.38;;
47309;SDS011;33046;52.270;6.832;2023-05-15T09:29:10;12.60;;;9.00;;
47309;SDS011;33046;52.270;6.832;2023-05-15T09:31:17;11.05;;;9.98;;
47309;SDS011;33046;52.270;6.832;2023-05-15T09:33:28;13.98;;;10.55;;
47309;SDS011;33046;52.270;6.832;2023-05-15T09:35:36;10.38;;;9.35;;
47309;SDS011;33046;52.270;6.832;2023-05-15T09:37:44;9.55;;;8.45;;
47309;SDS011;33046;52.270;6.832;2023-05-15T09:39:51;8.98;;;8.07;;
47309;SDS011;33046;52.270;6.832;2023-05-15T09:42:04;10.68;;;9.77;;
47309;SDS011;33046;52.270;6.832;2023-05-15T09:44:23;11.40;;;9.45;;
47309;SDS011;33046;52.270;6.832;2023-05-15T09:46:33;10.00;;;8.77;;
47309;SDS011;33046;52.270;6.832;2023-05-15T09:48:39;10.32;;;9.35;;
47309;SDS011;33046;52.270;6.832;2023-05-15T09:50:46;11.15;;;10.05;;
47309;SDS011;33046;52.270;6.832;2023-05-15T09:52:53;10.73;;;9.73;;
47309;SDS011;33046;52.270;6.832;2023-05-15T09:55:04;9.15;;;8.25;;
47309;SDS011;33046;52.270;6.832;2023-05-15T09:57:12;9.27;;;8.20;;
47309;SDS011;33046;52.270;6.832;2023-05-15T09:59:20;9.95;;;9.02;;
47309;SDS011;33046;52.270;6.832;2023-05-15T10:01:27;9.18;;;8.38;;
47309;SDS011;33046;52.270;6.832;2023-05-15T10:03:34;10.43;;;9.38;;
47309;SDS011;33046;52.270;6.832;2023-05-15T10:05:41;10.10;;;8.35;;
47309;SDS011;33046;52.270;6.832;2023-05-15T10:07:50;9.32;;;8.52;;
47309;SDS011;33046;52.270;6.832;2023-05-15T10:10:00;9.30;;;8.40;;
47309;SDS011;33046;52.270;6.832;2023-05-15T10:12:07;8.65;;;7.90;;
47309;SDS011;33046;52.270;6.832;2023-05-15T10:14:15;7.97;;;7.13;;
47309;SDS011;33046;52.270;6.832;2023-05-15T10:16:23;8.95;;;7.07;;
47309;SDS011;33046;52.270;6.832;2023-05-15T10:18:32;9.85;;;8.25;;
47309;SDS011;33046;52.270;6.832;2023-05-15T10:20:41;9.57;;;8.65;;
47309;SDS011;33046;52.270;6.832;2023-05-15T10:22:48;9.38;;;8.40;;
47309;SDS011;33046;52.270;6.832;2023-05-15T10:24:57;9.13;;;8.10;;
47309;SDS011;33046;52.270;6.832;2023-05-15T10:27:07;8.18;;;7.47;;
47309;SDS011;33046;52.270;6.832;2023-05-15T10:29:16;9.90;;;8.25;;
47309;SDS011;33046;52.270;6.832;2023-05-15T10:31:25;7.70;;;6.97;;
47309;SDS011;33046;52.270;6.832;2023-05-15T10:33:34;8.90;;;8.10;;
47309;SDS011;33046;52.270;6.832;2023-05-15T10:35:42;8.00;;;7.18;;
47309;SDS011;33046;52.270;6.832;2023-05-15T10:37:49;9.50;;;8.30;;
47309;SDS011;33046;52.270;6.832;2023-05-15T10:39:56;10.52;;;7.80;;
47309;SDS011;33046;52.270;6.832;2023-05-15T10:42:03;7.72;;;6.93;;
47309;SDS011;33046;52.270;6.832;2023-05-15T10:44:11;9.07;;;7.32;;
47309;SDS011;33046;52.270;6.832;2023-05-15T10:46:20;7.97;;;7.28;;
47309;SDS011;33046;52.270;6.832;2023-05-15T10:48:28;8.75;;;7.10;;
47309;SDS011;33046;52.270;6.832;2023-05-15T10:50:35;8.00;;;6.05;;
47309;SDS011;33046;52.270;6.832;2023-05-15T10:52:43;7.30;;;5.72;;
47309;SDS011;33046;52.270;6.832;2023-05-15T10:54:51;7.93;;;5.68;;
47309;SDS011;33046;52.270;6.832;2023-05-15T10:56:58;6.88;;;5.72;;
47309;SDS011;33046;52.270;6.832;2023-05-15T10:59:05;12.35;;;6.80;;
47309;SDS011;33046;52.270;6.832;2023-05-15T11:01:25;7.03;;;6.00;;
47309;SDS011;33046;52.270;6.832;2023-05-15T11:03:37;5.75;;;5.05;;
47309;SDS011;33046;52.270;6.832;2023-05-15T11:06:05;5.70;;;4.55;;
47309;SDS011;33046;52.270;6.832;2023-05-15T11:10:37;5.95;;;5.45;;
47309;SDS011;33046;52.270;6.832;2023-05-15T11:12:53;10.70;;;5.55;;
47309;SDS011;33046;52.270;6.832;2023-05-15T11:15:16;6.22;;;4.82;;
47309;SDS011;33046;52.270;6.832;2023-05-15T11:17:24;7.97;;;5.93;;
47309;SDS011;33046;52.270;6.832;2023-05-15T11:19:36;8.65;;;4.85;;
47309;SDS011;33046;52.270;6.832;2023-05-15T11:21:45;8.48;;;5.88;;
47309;SDS011;33046;52.270;6.832;2023-05-15T11:23:56;7.85;;;5.38;;
47309;SDS011;33046;52.270;6.832;2023-05-15T11:26:11;4.70;;;4.20;;
47309;SDS011;33046;52.270;6.832;2023-05-15T11:28:21;6.28;;;4.88;;
47309;SDS011;33046;52.270;6.832;2023-05-15T11:30:36;8.40;;;5.85;;
47309;SDS011;33046;52.270;6.832;2023-05-15T11:32:44;5.00;;;4.60;;
47309;SDS011;33046;52.270;6.832;2023-05-15T11:34:59;7.40;;;5.30;;
47309;SDS011;33046;52.270;6.832;2023-05-15T11:37:08;7.82;;;5.60;;
47309;SDS011;33046;52.270;6.832;2023-05-15T11:39:22;9.70;;;6.43;;
47309;SDS011;33046;52.270;6.832;2023-05-15T11:41:30;8.38;;;5.72;;
47309;SDS011;33046;52.270;6.832;2023-05-15T11:43:37;10.15;;;6.28;;
47309;SDS011;33046;52.270;6.832;2023-05-15T11:45:47;7.20;;;4.63;;
47309;SDS011;33046;52.270;6.832;2023-05-15T11:47:56;6.70;;;5.45;;
47309;SDS011;33046;52.270;6.832;2023-05-15T11:50:07;6.70;;;5.28;;
47309;SDS011;33046;52.270;6.832;2023-05-15T11:52:16;7.95;;;6.25;;
47309;SDS011;33046;52.270;6.832;2023-05-15T11:54:23;9.18;;;5.07;;
47309;SDS011;33046;52.270;6.832;2023-05-15T11:56:31;7.22;;;4.38;;
47309;SDS011;33046;52.270;6.832;2023-05-15T11:58:38;7.60;;;4.70;;
47309;SDS011;33046;52.270;6.832;2023-05-15T12:00:48;6.90;;;5.43;;
47309;SDS011;33046;52.270;6.832;2023-05-15T12:02:56;6.78;;;5.20;;
47309;SDS011;33046;52.270;6.832;2023-05-15T12:05:06;6.65;;;5.90;;
47309;SDS011;33046;52.270;6.832;2023-05-15T12:07:13;7.20;;;6.47;;
47309;SDS011;33046;52.270;6.832;2023-05-15T12:09:20;9.55;;;8.73;;
47309;SDS011;33046;52.270;6.832;2023-05-15T12:11:27;10.20;;;9.30;;
47309;SDS011;33046;52.270;6.832;2023-05-15T12:13:34;8.55;;;7.85;;
47309;SDS011;33046;52.270;6.832;2023-05-15T12:15:41;12.07;;;8.60;;
47309;SDS011;33046;52.270;6.832;2023-05-15T12:17:49;8.02;;;7.32;;
47309;SDS011;33046;52.270;6.832;2023-05-15T12:19:56;10.35;;;9.13;;
47309;SDS011;33046;52.270;6.832;2023-05-15T12:22:06;7.32;;;6.63;;
47309;SDS011;33046;52.270;6.832;2023-05-15T12:24:13;8.23;;;7.50;;
47309;SDS011;33046;52.270;6.832;2023-05-15T12:26:19;7.82;;;7.03;;
47309;SDS011;33046;52.270;6.832;2023-05-15T12:28:28;8.27;;;7.53;;
47309;SDS011;33046;52.270;6.832;2023-05-15T12:30:38;7.60;;;6.95;;
47309;SDS011;33046;52.270;6.832;2023-05-15T12:32:45;8.85;;;7.88;;
47309;SDS011;33046;52.270;6.832;2023-05-15T12:34:52;8.43;;;7.63;;
47309;SDS011;33046;52.270;6.832;2023-05-15T12:36:59;6.60;;;6.00;;
47309;SDS011;33046;52.270;6.832;2023-05-15T12:39:07;8.52;;;7.72;;
47309;SDS011;33046;52.270;6.832;2023-05-15T12:41:15;6.07;;;5.47;;
47309;SDS011;33046;52.270;6.832;2023-05-15T12:43:22;6.85;;;6.15;;